sensor_id;sensor_type;location;lat;lon;timestamp;temperature;humidity
17639;DHT22;8938;53.546;9.954;2024-02-23T00:01:28;13.50;99.90
17639;DHT22;8938;53.546;9.954;2024-02-23T00:03:54;13.40;99.90
17639;DHT22;8938;53.546;9.954;2024-02-23T00:06:21;13.30;99.90
17639;DHT22;8938;53.546;9.954;2024-02-23T00:08:48;13.30;99.90
17639;DHT22;8938;53.546;9.954;2024-02-23T00:11:13;13.30;99.90
17639;DHT22;8938;53.546;9.954;2024-02-23T00:13:39;13.30;99.90
17639;DHT22;8938;53.546;9.954;2024-02-23T00:16:04;13.40;99.90
17639;DHT22;8938;53.546;9.954;2024-02-23T00:18:30;13.30;99.90
17639;DHT22;8938;53.546;9.954;2024-02-23T00:20:56;13.30;99.90
17639;DHT22;8938;53.546;9.954;2024-02-23T00:23:22;13.20;99.90
17639;DHT22;8938;53.546;9.954;2024-02-23T00:25:47;13.20;99.90
17639;DHT22;8938;53.546;9.954;2024-02-23T00:28:13;13.20;99.90
17639;DHT22;8938;53.546;9.954;2024-02-23T00:30:38;13.10;99.90
17639;DHT22;8938;53.546;9.954;2024-02-23T00:33:04;13.00;99.90
17639;DHT22;8938;53.546;9.954;2024-02-23T00:35:29;13.00;99.90
17639;DHT22;8938;53.546;9.954;2024-02-23T00:37:55;13.00;99.90
17639;DHT22;8938;53.546;9.954;2024-02-23T00:40:21;13.00;99.90
17639;DHT22;8938;53.546;9.954;2024-02-23T00:42:46;13.00;99.90
17639;DHT22;8938;53.546;9.954;2024-02-23T00:45:12;13.00;99.90
17639;DHT22;8938;53.546;9.954;2024-02-23T00:47:37;13.00;99.90
17639;DHT22;8938;53.546;9.954;2024-02-23T00:50:03;12.90;99.90
17639;DHT22;8938;53.546;9.954;2024-02-23T00:52:29;12.90;99.90
17639;DHT22;8938;53.546;9.954;2024-02-23T00:54:54;12.70;99.90
17639;DHT22;8938;53.546;9.954;2024-02-23T00:57:20;12.40;99.90
17639;DHT22;8938;53.546;9.954;2024-02-23T00:59:52;12.10;99.90
17639;DHT22;8938;53.546;9.954;2024-02-23T01:02:18;11.60;99.90
17639;DHT22;8938;53.546;9.954;2024-02-23T01:04:43;11.30;99.90
17639;DHT22;8938;53.546;9.954;2024-02-23T01:07:09;11.10;99.90
17639;DHT22;8938;53.546;9.954;2024-02-23T01:09:34;11.00;99.90
17639;DHT22;8938;53.546;9.954;2024-02-23T01:12:00;10.90;99.90
17639;DHT22;8938;53.546;9.954;2024-02-23T01:14:25;10.90;99.90
17639;DHT22;8938;53.546;9.954;2024-02-23T01:16:51;11.00;99.90
17639;DHT22;8938;53.546;9.954;2024-02-23T01:19:16;11.00;99.90
17639;DHT22;8938;53.546;9.954;2024-02-23T01:21:42;11.10;99.90
17639;DHT22;8938;53.546;9.954;2024-02-23T01:24:07;11.10;99.90
17639;DHT22;8938;53.546;9.954;2024-02-23T01:26:33;11.10;99.90
17639;DHT22;8938;53.546;9.954;2024-02-23T01:28:58;11.20;99.90
17639;DHT22;8938;53.546;9.954;2024-02-23T01:31:24;11.10;99.90
17639;DHT22;8938;53.546;9.954;2024-02-23T01:33:49;11.20;99.90
17639;DHT22;8938;53.546;9.954;2024-02-23T01:36:16;11.20;99.90
17639;DHT22;8938;53.546;9.954;2024-02-23T01:38:43;11.10;99.90
17639;DHT22;8938;53.546;9.954;2024-02-23T01:41:08;11.10;99.90
17639;DHT22;8938;53.546;9.954;2024-02-23T01:43:34;11.10;99.90
17639;DHT22;8938;53.546;9.954;2024-02-23T01:46:00;11.10;99.90
17639;DHT22;8938;53.546;9.954;2024-02-23T01:48:25;11.20;99.90
17639;DHT22;8938;53.546;9.954;2024-02-23T01:50:52;11.20;99.90
17639;DHT22;8938;53.546;9.954;2024-02-23T01:53:19;11.10;99.90
17639;DHT22;8938;53.546;9.954;2024-02-23T01:55:46;11.00;99.90
17639;DHT22;8938;53.546;9.954;2024-02-23T01:58:12;11.00;99.90
17639;DHT22;8938;53.546;9.954;2024-02-23T02:00:38;11.00;99.90
17639;DHT22;8938;53.546;9.954;2024-02-23T02:03:04;11.00;99.90
17639;DHT22;8938;53.546;9.954;2024-02-23T02:05:30;11.00;99.90
17639;DHT22;8938;53.546;9.954;2024-02-23T02:07:56;11.00;99.90
17639;DHT22;8938;53.546;9.954;2024-02-23T02:10:24;10.90;99.90
17639;DHT22;8938;53.546;9.954;2024-02-23T02:12:50;10.90;99.90
17639;DHT22;8938;53.546;9.954;2024-02-23T02:15:16;10.80;99.90
17639;DHT22;8938;53.546;9.954;2024-02-23T02:17:41;10.80;99.90
17639;DHT22;8938;53.546;9.954;2024-02-23T02:20:11;10.80;99.90
17639;DHT22;8938;53.546;9.954;2024-02-23T02:22:37;10.80;99.90
17639;DHT22;8938;53.546;9.954;2024-02-23T02:25:03;10.80;99.90
17639;DHT22;8938;53.546;9.954;2024-02-23T02:27:29;10.80;99.90
17639;DHT22;8938;53.546;9.954;2024-02-23T02:29:55;10.80;99.90
17639;DHT22;8938;53.546;9.954;2024-02-23T02:32:21;10.70;99.90
17639;DHT22;8938;53.546;9.954;2024-02-23T02:34:46;10.60;99.90
17639;DHT22;8938;53.546;9.954;2024-02-23T02:37:12;10.50;99.90
17639;DHT22;8938;53.546;9.954;2024-02-23T02:39:37;10.40;99.90
17639;DHT22;8938;53.546;9.954;2024-02-23T02:42:03;10.40;99.90
17639;DHT22;8938;53.546;9.954;2024-02-23T02:44:28;10.40;99.90
17639;DHT22;8938;53.546;9.954;2024-02-23T02:46:56;10.40;99.90
17639;DHT22;8938;53.546;9.954;2024-02-23T02:49:22;10.30;99.90
17639;DHT22;8938;53.546;9.954;2024-02-23T02:51:48;10.20;99.90
17639;DHT22;8938;53.546;9.954;2024-02-23T02:54:13;10.20;99.90
17639;DHT22;8938;53.546;9.954;2024-02-23T02:56:43;10.20;99.90
17639;DHT22;8938;53.546;9.954;2024-02-23T02:59:09;10.20;99.90
17639;DHT22;8938;53.546;9.954;2024-02-23T03:01:35;10.20;99.90
17639;DHT22;8938;53.546;9.954;2024-02-23T03:04:01;10.20;99.90
17639;DHT22;8938;53.546;9.954;2024-02-23T03:06:26;10.20;99.90
17639;DHT22;8938;53.546;9.954;2024-02-23T03:08:52;10.10;99.90
17639;DHT22;8938;53.546;9.954;2024-02-23T03:11:17;10.10;99.90
17639;DHT22;8938;53.546;9.954;2024-02-23T03:13:43;10.00;99.90
17639;DHT22;8938;53.546;9.954;2024-02-23T03:16:15;10.00;99.90
17639;DHT22;8938;53.546;9.954;2024-02-23T03:18:41;10.00;99.90
17639;DHT22;8938;53.546;9.954;2024-02-23T03:21:10;9.90;99.90
17639;DHT22;8938;53.546;9.954;2024-02-23T03:23:36;9.90;99.90
17639;DHT22;8938;53.546;9.954;2024-02-23T03:26:02;9.80;99.90
17639;DHT22;8938;53.546;9.954;2024-02-23T03:28:28;9.80;99.90
17639;DHT22;8938;53.546;9.954;2024-02-23T03:30:53;9.90;99.90
17639;DHT22;8938;53.546;9.954;2024-02-23T03:33:19;9.90;99.90
17639;DHT22;8938;53.546;9.954;2024-02-23T03:35:44;9.80;99.90
17639;DHT22;8938;53.546;9.954;2024-02-23T03:38:10;9.60;99.90
17639;DHT22;8938;53.546;9.954;2024-02-23T03:40:36;9.60;99.90
17639;DHT22;8938;53.546;9.954;2024-02-23T03:43:02;9.50;99.90
17639;DHT22;8938;53.546;9.954;2024-02-23T03:45:27;9.50;99.90
17639;DHT22;8938;53.546;9.954;2024-02-23T03:47:53;9.60;99.90
17639;DHT22;8938;53.546;9.954;2024-02-23T03:50:19;9.50;99.90
17639;DHT22;8938;53.546;9.954;2024-02-23T03:52:45;9.50;99.90
17639;DHT22;8938;53.546;9.954;2024-02-23T03:55:10;9.60;99.90
17639;DHT22;8938;53.546;9.954;2024-02-23T03:57:37;9.60;99.90
17639;DHT22;8938;53.546;9.954;2024-02-23T04:00:02;9.60;99.90
17639;DHT22;8938;53.546;9.954;2024-02-23T04:02:28;9.60;99.90
17639;DHT22;8938;53.546;9.954;2024-02-23T04:04:54;9.60;99.90
17639;DHT22;8938;53.546;9.954;2024-02-23T04:07:20;9.50;99.90
17639;DHT22;8938;53.546;9.954;2024-02-23T04:09:45;9.60;99.90
17639;DHT22;8938;53.546;9.954;2024-02-23T04:12:18;9.50;99.90
17639;DHT22;8938;53.546;9.954;2024-02-23T04:14:43;9.50;99.90
17639;DHT22;8938;53.546;9.954;2024-02-23T04:17:09;9.50;99.90
17639;DHT22;8938;53.546;9.954;2024-02-23T04:19:35;9.40;99.90
17639;DHT22;8938;53.546;9.954;2024-02-23T04:22:00;9.50;99.90
17639;DHT22;8938;53.546;9.954;2024-02-23T04:24:26;9.50;99.90
17639;DHT22;8938;53.546;9.954;2024-02-23T04:26:52;9.50;99.90
17639;DHT22;8938;53.546;9.954;2024-02-23T04:29:17;9.50;99.90
17639;DHT22;8938;53.546;9.954;2024-02-23T04:31:42;9.50;99.90
17639;DHT22;8938;53.546;9.954;2024-02-23T04:34:08;9.50;99.90
17639;DHT22;8938;53.546;9.954;2024-02-23T04:36:33;9.50;99.90
17639;DHT22;8938;53.546;9.954;2024-02-23T04:38:59;9.50;99.90
17639;DHT22;8938;53.546;9.954;2024-02-23T04:41:25;9.60;99.90
17639;DHT22;8938;53.546;9.954;2024-02-23T04:43:50;9.60;99.90
17639;DHT22;8938;53.546;9.954;2024-02-23T04:46:16;9.60;99.90
17639;DHT22;8938;53.546;9.954;2024-02-23T04:48:41;9.50;99.90
17639;DHT22;8938;53.546;9.954;2024-02-23T04:51:07;9.40;99.90
17639;DHT22;8938;53.546;9.954;2024-02-23T04:53:38;9.40;99.90
17639;DHT22;8938;53.546;9.954;2024-02-23T04:56:04;9.50;99.90
17639;DHT22;8938;53.546;9.954;2024-02-23T04:58:30;9.60;99.90
17639;DHT22;8938;53.546;9.954;2024-02-23T05:00:55;9.50;99.90
17639;DHT22;8938;53.546;9.954;2024-02-23T05:03:21;9.70;99.90
17639;DHT22;8938;53.546;9.954;2024-02-23T05:05:47;9.50;99.90
17639;DHT22;8938;53.546;9.954;2024-02-23T05:08:13;9.60;99.90
17639;DHT22;8938;53.546;9.954;2024-02-23T05:10:39;9.40;99.90
17639;DHT22;8938;53.546;9.954;2024-02-23T05:13:04;9.40;99.90
17639;DHT22;8938;53.546;9.954;2024-02-23T05:15:30;9.50;99.90
17639;DHT22;8938;53.546;9.954;2024-02-23T05:17:55;9.50;99.90
17639;DHT22;8938;53.546;9.954;2024-02-23T05:20:21;9.50;99.90
17639;DHT22;8938;53.546;9.954;2024-02-23T05:22:47;9.40;99.90
17639;DHT22;8938;53.546;9.954;2024-02-23T05:25:13;9.30;99.90
17639;DHT22;8938;53.546;9.954;2024-02-23T05:27:39;9.30;99.90
17639;DHT22;8938;53.546;9.954;2024-02-23T05:30:05;9.30;99.90
17639;DHT22;8938;53.546;9.954;2024-02-23T05:32:32;9.30;99.90
17639;DHT22;8938;53.546;9.954;2024-02-23T05:34:57;9.30;99.90
17639;DHT22;8938;53.546;9.954;2024-02-23T05:37:23;9.30;99.90
17639;DHT22;8938;53.546;9.954;2024-02-23T05:39:49;9.40;99.90
17639;DHT22;8938;53.546;9.954;2024-02-23T05:42:14;9.40;99.90
17639;DHT22;8938;53.546;9.954;2024-02-23T05:44:43;9.40;99.90
17639;DHT22;8938;53.546;9.954;2024-02-23T05:47:09;9.40;99.90
17639;DHT22;8938;53.546;9.954;2024-02-23T05:49:35;9.50;99.90
17639;DHT22;8938;53.546;9.954;2024-02-23T05:52:01;9.40;99.90
17639;DHT22;8938;53.546;9.954;2024-02-23T05:54:26;9.40;99.90
17639;DHT22;8938;53.546;9.954;2024-02-23T05:56:55;9.40;99.90
17639;DHT22;8938;53.546;9.954;2024-02-23T05:59:20;9.30;99.90
17639;DHT22;8938;53.546;9.954;2024-02-23T06:01:46;9.30;99.90
17639;DHT22;8938;53.546;9.954;2024-02-23T06:04:11;9.30;99.90
17639;DHT22;8938;53.546;9.954;2024-02-23T06:06:37;9.20;99.90
17639;DHT22;8938;53.546;9.954;2024-02-23T06:09:02;9.30;99.90
17639;DHT22;8938;53.546;9.954;2024-02-23T06:11:29;9.30;99.90
17639;DHT22;8938;53.546;9.954;2024-02-23T06:13:55;9.30;99.90
17639;DHT22;8938;53.546;9.954;2024-02-23T06:16:21;9.30;99.90
17639;DHT22;8938;53.546;9.954;2024-02-23T06:18:46;9.30;99.90
17639;DHT22;8938;53.546;9.954;2024-02-23T06:21:13;9.30;99.90
17639;DHT22;8938;53.546;9.954;2024-02-23T06:23:39;9.30;99.90
17639;DHT22;8938;53.546;9.954;2024-02-23T06:26:05;9.40;99.90
17639;DHT22;8938;53.546;9.954;2024-02-23T06:28:30;9.40;99.90
17639;DHT22;8938;53.546;9.954;2024-02-23T06:30:56;9.40;99.90
17639;DHT22;8938;53.546;9.954;2024-02-23T06:33:21;9.40;99.90
17639;DHT22;8938;53.546;9.954;2024-02-23T06:35:47;9.40;99.90
17639;DHT22;8938;53.546;9.954;2024-02-23T06:38:12;9.30;99.90
17639;DHT22;8938;53.546;9.954;2024-02-23T06:40:38;9.30;99.90
17639;DHT22;8938;53.546;9.954;2024-02-23T06:43:03;9.20;99.90
17639;DHT22;8938;53.546;9.954;2024-02-23T06:45:29;9.30;99.90
17639;DHT22;8938;53.546;9.954;2024-02-23T06:47:55;9.30;99.90
17639;DHT22;8938;53.546;9.954;2024-02-23T06:50:20;9.30;99.90
17639;DHT22;8938;53.546;9.954;2024-02-23T06:52:47;9.20;99.90
17639;DHT22;8938;53.546;9.954;2024-02-23T06:55:15;9.30;99.90
17639;DHT22;8938;53.546;9.954;2024-02-23T06:57:40;9.30;99.90
17639;DHT22;8938;53.546;9.954;2024-02-23T07:00:06;9.40;99.90
17639;DHT22;8938;53.546;9.954;2024-02-23T07:02:33;9.30;99.90
17639;DHT22;8938;53.546;9.954;2024-02-23T07:05:02;9.30;99.90
17639;DHT22;8938;53.546;9.954;2024-02-23T07:07:30;9.30;99.90
17639;DHT22;8938;53.546;9.954;2024-02-23T07:09:56;9.30;99.90
17639;DHT22;8938;53.546;9.954;2024-02-23T07:12:21;9.30;99.90
17639;DHT22;8938;53.546;9.954;2024-02-23T07:14:47;9.40;99.90
17639;DHT22;8938;53.546;9.954;2024-02-23T07:17:16;9.50;99.90
17639;DHT22;8938;53.546;9.954;2024-02-23T07:19:42;9.50;99.90
17639;DHT22;8938;53.546;9.954;2024-02-23T07:22:08;9.50;99.90
17639;DHT22;8938;53.546;9.954;2024-02-23T07:24:33;9.50;99.90
17639;DHT22;8938;53.546;9.954;2024-02-23T07:26:59;9.60;99.90
17639;DHT22;8938;53.546;9.954;2024-02-23T07:29:24;9.50;99.90
17639;DHT22;8938;53.546;9.954;2024-02-23T07:31:50;9.50;99.90
17639;DHT22;8938;53.546;9.954;2024-02-23T07:34:15;9.50;99.90
17639;DHT22;8938;53.546;9.954;2024-02-23T07:36:41;9.50;99.90
17639;DHT22;8938;53.546;9.954;2024-02-23T07:39:08;9.60;99.90
17639;DHT22;8938;53.546;9.954;2024-02-23T07:41:33;9.80;99.90
17639;DHT22;8938;53.546;9.954;2024-02-23T07:43:59;9.90;99.90
17639;DHT22;8938;53.546;9.954;2024-02-23T07:46:24;9.80;99.90
17639;DHT22;8938;53.546;9.954;2024-02-23T07:48:50;9.80;99.90
17639;DHT22;8938;53.546;9.954;2024-02-23T07:51:16;9.80;99.90
17639;DHT22;8938;53.546;9.954;2024-02-23T07:53:41;9.80;99.90
17639;DHT22;8938;53.546;9.954;2024-02-23T07:56:10;9.80;99.90
17639;DHT22;8938;53.546;9.954;2024-02-23T07:58:35;9.80;99.90
17639;DHT22;8938;53.546;9.954;2024-02-23T08:01:01;9.80;99.90
17639;DHT22;8938;53.546;9.954;2024-02-23T08:03:26;9.90;99.90
17639;DHT22;8938;53.546;9.954;2024-02-23T08:05:52;9.90;99.90
17639;DHT22;8938;53.546;9.954;2024-02-23T08:08:17;9.90;99.90
17639;DHT22;8938;53.546;9.954;2024-02-23T08:10:44;10.00;99.90
17639;DHT22;8938;53.546;9.954;2024-02-23T08:13:09;10.00;99.90
17639;DHT22;8938;53.546;9.954;2024-02-23T08:15:36;10.10;99.90
17639;DHT22;8938;53.546;9.954;2024-02-23T08:18:01;10.20;99.90
17639;DHT22;8938;53.546;9.954;2024-02-23T08:20:27;10.10;99.90
17639;DHT22;8938;53.546;9.954;2024-02-23T08:22:53;10.10;99.90
17639;DHT22;8938;53.546;9.954;2024-02-23T08:25:18;10.20;99.90
17639;DHT22;8938;53.546;9.954;2024-02-23T08:27:44;10.20;99.90
17639;DHT22;8938;53.546;9.954;2024-02-23T08:30:09;10.20;99.90
17639;DHT22;8938;53.546;9.954;2024-02-23T08:32:36;10.30;99.90
17639;DHT22;8938;53.546;9.954;2024-02-23T08:35:02;10.30;99.90
17639;DHT22;8938;53.546;9.954;2024-02-23T08:37:28;10.40;99.90
17639;DHT22;8938;53.546;9.954;2024-02-23T08:39:53;10.40;99.90
17639;DHT22;8938;53.546;9.954;2024-02-23T08:42:19;10.40;99.90
17639;DHT22;8938;53.546;9.954;2024-02-23T08:44:45;10.50;99.90
17639;DHT22;8938;53.546;9.954;2024-02-23T08:47:11;10.50;99.90
17639;DHT22;8938;53.546;9.954;2024-02-23T08:49:37;10.60;99.90
17639;DHT22;8938;53.546;9.954;2024-02-23T08:52:02;10.60;99.90
17639;DHT22;8938;53.546;9.954;2024-02-23T08:54:29;10.60;99.90
17639;DHT22;8938;53.546;9.954;2024-02-23T08:56:56;10.60;99.90
17639;DHT22;8938;53.546;9.954;2024-02-23T08:59:21;10.80;99.90
17639;DHT22;8938;53.546;9.954;2024-02-23T09:01:47;10.90;99.90
17639;DHT22;8938;53.546;9.954;2024-02-23T09:04:13;11.00;99.90
17639;DHT22;8938;53.546;9.954;2024-02-23T09:06:38;11.00;99.90
17639;DHT22;8938;53.546;9.954;2024-02-23T09:09:04;11.00;99.90
17639;DHT22;8938;53.546;9.954;2024-02-23T09:11:30;11.10;99.90
17639;DHT22;8938;53.546;9.954;2024-02-23T09:13:55;11.20;99.90
17639;DHT22;8938;53.546;9.954;2024-02-23T09:16:21;11.20;99.90
17639;DHT22;8938;53.546;9.954;2024-02-23T09:18:48;11.10;99.90
17639;DHT22;8938;53.546;9.954;2024-02-23T09:21:14;11.00;99.90
17639;DHT22;8938;53.546;9.954;2024-02-23T09:23:39;11.10;99.90
17639;DHT22;8938;53.546;9.954;2024-02-23T09:26:11;11.10;99.90
17639;DHT22;8938;53.546;9.954;2024-02-23T09:28:37;11.00;99.90
17639;DHT22;8938;53.546;9.954;2024-02-23T09:31:03;11.10;99.90
17639;DHT22;8938;53.546;9.954;2024-02-23T09:33:30;11.00;99.90
17639;DHT22;8938;53.546;9.954;2024-02-23T09:35:56;11.00;99.90
17639;DHT22;8938;53.546;9.954;2024-02-23T09:38:22;11.00;99.90
17639;DHT22;8938;53.546;9.954;2024-02-23T09:40:50;11.10;99.90
17639;DHT22;8938;53.546;9.954;2024-02-23T09:43:16;11.10;99.90
17639;DHT22;8938;53.546;9.954;2024-02-23T09:45:42;11.20;99.90
17639;DHT22;8938;53.546;9.954;2024-02-23T09:48:10;11.30;99.90
17639;DHT22;8938;53.546;9.954;2024-02-23T09:50:37;11.60;99.90
17639;DHT22;8938;53.546;9.954;2024-02-23T09:53:04;11.80;99.90
17639;DHT22;8938;53.546;9.954;2024-02-23T09:55:34;11.80;99.90
17639;DHT22;8938;53.546;9.954;2024-02-23T09:57:59;11.90;99.90
17639;DHT22;8938;53.546;9.954;2024-02-23T10:00:25;11.90;99.90
17639;DHT22;8938;53.546;9.954;2024-02-23T10:02:53;11.80;99.90
17639;DHT22;8938;53.546;9.954;2024-02-23T10:05:23;11.90;99.90
17639;DHT22;8938;53.546;9.954;2024-02-23T10:07:51;11.90;99.90
17639;DHT22;8938;53.546;9.954;2024-02-23T10:10:24;11.80;99.90
17639;DHT22;8938;53.546;9.954;2024-02-23T10:12:52;11.70;99.90
17639;DHT22;8938;53.546;9.954;2024-02-23T10:15:17;11.60;99.90
17639;DHT22;8938;53.546;9.954;2024-02-23T10:17:43;11.70;99.90
17639;DHT22;8938;53.546;9.954;2024-02-23T10:20:08;11.80;99.90
17639;DHT22;8938;53.546;9.954;2024-02-23T10:22:36;11.90;99.90
17639;DHT22;8938;53.546;9.954;2024-02-23T10:25:01;11.90;99.90
17639;DHT22;8938;53.546;9.954;2024-02-23T10:27:27;12.00;99.90
17639;DHT22;8938;53.546;9.954;2024-02-23T10:29:53;12.00;99.90
17639;DHT22;8938;53.546;9.954;2024-02-23T10:32:19;12.00;99.90
17639;DHT22;8938;53.546;9.954;2024-02-23T10:34:48;12.00;99.90
17639;DHT22;8938;53.546;9.954;2024-02-23T10:37:17;12.00;99.90
17639;DHT22;8938;53.546;9.954;2024-02-23T10:39:42;12.00;99.90
17639;DHT22;8938;53.546;9.954;2024-02-23T10:42:09;11.90;99.90
17639;DHT22;8938;53.546;9.954;2024-02-23T10:44:35;11.90;99.90
17639;DHT22;8938;53.546;9.954;2024-02-23T10:47:02;12.00;99.90
17639;DHT22;8938;53.546;9.954;2024-02-23T10:49:28;11.90;99.90
17639;DHT22;8938;53.546;9.954;2024-02-23T10:51:55;11.80;99.90
17639;DHT22;8938;53.546;9.954;2024-02-23T10:54:21;11.80;99.90
17639;DHT22;8938;53.546;9.954;2024-02-23T10:56:49;11.70;99.90
17639;DHT22;8938;53.546;9.954;2024-02-23T10:59:16;11.70;99.90
17639;DHT22;8938;53.546;9.954;2024-02-23T11:01:48;11.80;99.90
17639;DHT22;8938;53.546;9.954;2024-02-23T11:04:16;11.80;99.90
17639;DHT22;8938;53.546;9.954;2024-02-23T11:06:42;11.90;99.90
17639;DHT22;8938;53.546;9.954;2024-02-23T11:09:12;12.00;99.90
17639;DHT22;8938;53.546;9.954;2024-02-23T11:11:38;12.00;99.90
17639;DHT22;8938;53.546;9.954;2024-02-23T11:14:07;12.10;99.90
17639;DHT22;8938;53.546;9.954;2024-02-23T11:16:38;12.10;99.90
17639;DHT22;8938;53.546;9.954;2024-02-23T11:19:06;12.10;99.90
17639;DHT22;8938;53.546;9.954;2024-02-23T11:21:35;12.10;99.90
17639;DHT22;8938;53.546;9.954;2024-02-23T11:24:03;12.00;99.90
17639;DHT22;8938;53.546;9.954;2024-02-23T11:26:29;12.10;99.90
17639;DHT22;8938;53.546;9.954;2024-02-23T11:28:55;12.10;99.90
17639;DHT22;8938;53.546;9.954;2024-02-23T11:31:22;12.00;99.90
17639;DHT22;8938;53.546;9.954;2024-02-23T11:33:53;12.10;99.90
17639;DHT22;8938;53.546;9.954;2024-02-23T11:38:52;12.00;99.90
17639;DHT22;8938;53.546;9.954;2024-02-23T11:41:20;12.10;99.90
17639;DHT22;8938;53.546;9.954;2024-02-23T11:43:46;12.20;99.90
17639;DHT22;8938;53.546;9.954;2024-02-23T11:46:13;12.20;99.90
17639;DHT22;8938;53.546;9.954;2024-02-23T11:48:39;12.20;99.90
17639;DHT22;8938;53.546;9.954;2024-02-23T11:51:05;12.30;99.90
17639;DHT22;8938;53.546;9.954;2024-02-23T11:53:30;12.40;99.90
17639;DHT22;8938;53.546;9.954;2024-02-23T11:55:57;12.40;99.90
17639;DHT22;8938;53.546;9.954;2024-02-23T11:58:23;12.30;99.90
17639;DHT22;8938;53.546;9.954;2024-02-23T12:00:48;12.30;99.90
17639;DHT22;8938;53.546;9.954;2024-02-23T12:03:16;12.30;99.90
17639;DHT22;8938;53.546;9.954;2024-02-23T12:05:43;12.20;99.90
17639;DHT22;8938;53.546;9.954;2024-02-23T12:08:08;12.20;99.90
17639;DHT22;8938;53.546;9.954;2024-02-23T12:10:34;12.20;99.90
17639;DHT22;8938;53.546;9.954;2024-02-23T12:13:00;12.10;99.90
17639;DHT22;8938;53.546;9.954;2024-02-23T12:15:25;12.10;99.90
17639;DHT22;8938;53.546;9.954;2024-02-23T12:17:51;12.10;99.90
17639;DHT22;8938;53.546;9.954;2024-02-23T12:20:16;12.00;99.90
17639;DHT22;8938;53.546;9.954;2024-02-23T12:22:42;12.10;99.90
17639;DHT22;8938;53.546;9.954;2024-02-23T12:25:08;12.10;99.90
17639;DHT22;8938;53.546;9.954;2024-02-23T12:27:34;12.10;99.90
17639;DHT22;8938;53.546;9.954;2024-02-23T12:30:00;12.10;99.90
17639;DHT22;8938;53.546;9.954;2024-02-23T12:32:26;12.00;99.90
17639;DHT22;8938;53.546;9.954;2024-02-23T12:34:52;12.00;99.90
17639;DHT22;8938;53.546;9.954;2024-02-23T12:37:18;12.00;99.90
17639;DHT22;8938;53.546;9.954;2024-02-23T12:39:46;12.10;99.90
17639;DHT22;8938;53.546;9.954;2024-02-23T12:42:12;12.20;99.90
17639;DHT22;8938;53.546;9.954;2024-02-23T12:44:37;12.30;99.90
17639;DHT22;8938;53.546;9.954;2024-02-23T12:47:03;12.30;99.90
17639;DHT22;8938;53.546;9.954;2024-02-23T12:49:29;12.40;99.90
17639;DHT22;8938;53.546;9.954;2024-02-23T12:51:55;12.40;99.90
17639;DHT22;8938;53.546;9.954;2024-02-23T12:54:21;12.50;99.90
17639;DHT22;8938;53.546;9.954;2024-02-23T12:56:46;12.50;99.90
17639;DHT22;8938;53.546;9.954;2024-02-23T12:59:12;12.60;99.90
17639;DHT22;8938;53.546;9.954;2024-02-23T13:01:37;12.60;99.90
17639;DHT22;8938;53.546;9.954;2024-02-23T13:04:04;12.50;99.90
17639;DHT22;8938;53.546;9.954;2024-02-23T13:06:37;12.50;99.80
17639;DHT22;8938;53.546;9.954;2024-02-23T13:09:03;12.50;99.90
17639;DHT22;8938;53.546;9.954;2024-02-23T13:11:29;12.60;99.90
17639;DHT22;8938;53.546;9.954;2024-02-23T13:13:54;12.60;99.90
17639;DHT22;8938;53.546;9.954;2024-02-23T13:16:20;12.60;99.50
17639;DHT22;8938;53.546;9.954;2024-02-23T13:18:45;12.50;99.70
17639;DHT22;8938;53.546;9.954;2024-02-23T13:21:12;12.50;99.90
17639;DHT22;8938;53.546;9.954;2024-02-23T13:23:38;12.60;99.90
17639;DHT22;8938;53.546;9.954;2024-02-23T13:26:05;12.70;99.90
17639;DHT22;8938;53.546;9.954;2024-02-23T13:28:30;12.70;99.60
17639;DHT22;8938;53.546;9.954;2024-02-23T13:30:56;12.60;99.60
17639;DHT22;8938;53.546;9.954;2024-02-23T13:33:21;12.60;99.70
17639;DHT22;8938;53.546;9.954;2024-02-23T13:35:49;12.60;99.70
17639;DHT22;8938;53.546;9.954;2024-02-23T13:38:14;12.70;99.80
17639;DHT22;8938;53.546;9.954;2024-02-23T13:40:40;12.70;99.30
17639;DHT22;8938;53.546;9.954;2024-02-23T13:43:05;12.50;99.40
17639;DHT22;8938;53.546;9.954;2024-02-23T13:45:32;12.50;99.40
17639;DHT22;8938;53.546;9.954;2024-02-23T13:48:02;12.50;99.50
17639;DHT22;8938;53.546;9.954;2024-02-23T13:50:28;12.50;99.70
17639;DHT22;8938;53.546;9.954;2024-02-23T13:52:54;12.60;99.70
17639;DHT22;8938;53.546;9.954;2024-02-23T13:55:20;12.50;99.30
17639;DHT22;8938;53.546;9.954;2024-02-23T13:57:49;12.50;99.40
17639;DHT22;8938;53.546;9.954;2024-02-23T14:00:16;12.60;99.60
17639;DHT22;8938;53.546;9.954;2024-02-23T14:02:42;12.70;99.80
17639;DHT22;8938;53.546;9.954;2024-02-23T14:05:08;12.70;99.70
17639;DHT22;8938;53.546;9.954;2024-02-23T14:07:34;12.80;99.60
17639;DHT22;8938;53.546;9.954;2024-02-23T14:09:59;12.80;99.40
17639;DHT22;8938;53.546;9.954;2024-02-23T14:12:25;12.80;99.30
17639;DHT22;8938;53.546;9.954;2024-02-23T14:14:51;13.00;99.40
17639;DHT22;8938;53.546;9.954;2024-02-23T14:17:16;12.90;99.40
17639;DHT22;8938;53.546;9.954;2024-02-23T14:19:42;12.90;99.50
17639;DHT22;8938;53.546;9.954;2024-02-23T14:22:07;13.00;99.30
17639;DHT22;8938;53.546;9.954;2024-02-23T14:24:33;13.10;98.80
17639;DHT22;8938;53.546;9.954;2024-02-23T14:26:58;13.30;99.20
17639;DHT22;8938;53.546;9.954;2024-02-23T14:29:24;13.40;99.00
17639;DHT22;8938;53.546;9.954;2024-02-23T14:31:50;13.40;98.60
17639;DHT22;8938;53.546;9.954;2024-02-23T14:34:15;13.50;98.50
17639;DHT22;8938;53.546;9.954;2024-02-23T14:36:41;13.40;98.50
17639;DHT22;8938;53.546;9.954;2024-02-23T14:39:09;13.40;98.30
17639;DHT22;8938;53.546;9.954;2024-02-23T14:41:35;13.30;98.50
17639;DHT22;8938;53.546;9.954;2024-02-23T14:44:01;13.40;98.80
17639;DHT22;8938;53.546;9.954;2024-02-23T14:46:26;13.60;98.70
17639;DHT22;8938;53.546;9.954;2024-02-23T14:48:52;13.40;98.30
17639;DHT22;8938;53.546;9.954;2024-02-23T14:51:19;13.40;98.60
17639;DHT22;8938;53.546;9.954;2024-02-23T14:53:45;13.40;98.30
17639;DHT22;8938;53.546;9.954;2024-02-23T14:56:10;13.30;98.40
17639;DHT22;8938;53.546;9.954;2024-02-23T14:58:36;13.30;98.40
17639;DHT22;8938;53.546;9.954;2024-02-23T15:01:01;13.30;98.20
17639;DHT22;8938;53.546;9.954;2024-02-23T15:03:27;13.20;98.40
17639;DHT22;8938;53.546;9.954;2024-02-23T15:05:52;13.20;98.00
17639;DHT22;8938;53.546;9.954;2024-02-23T15:08:18;13.10;98.40
17639;DHT22;8938;53.546;9.954;2024-02-23T15:10:43;13.10;98.60
17639;DHT22;8938;53.546;9.954;2024-02-23T15:13:09;13.20;98.60
17639;DHT22;8938;53.546;9.954;2024-02-23T15:15:35;13.20;98.50
17639;DHT22;8938;53.546;9.954;2024-02-23T15:18:04;13.20;98.60
17639;DHT22;8938;53.546;9.954;2024-02-23T15:20:31;13.20;98.70
17639;DHT22;8938;53.546;9.954;2024-02-23T15:22:57;13.30;98.80
17639;DHT22;8938;53.546;9.954;2024-02-23T15:25:23;13.30;98.80
17639;DHT22;8938;53.546;9.954;2024-02-23T15:27:48;13.30;98.80
17639;DHT22;8938;53.546;9.954;2024-02-23T15:30:15;13.30;98.80
17639;DHT22;8938;53.546;9.954;2024-02-23T15:32:41;13.20;98.80
17639;DHT22;8938;53.546;9.954;2024-02-23T15:35:07;13.20;98.80
17639;DHT22;8938;53.546;9.954;2024-02-23T15:37:33;13.20;98.50
17639;DHT22;8938;53.546;9.954;2024-02-23T15:39:58;13.10;98.60
17639;DHT22;8938;53.546;9.954;2024-02-23T15:42:24;13.10;98.60
17639;DHT22;8938;53.546;9.954;2024-02-23T15:44:50;13.10;99.00